Time;durP1;ratioP1;P1;durP2;ratioP2;P2;SDS_P1;SDS_P2;PMS_P1;PMS_P2;Temp;Humidity;BMP_temperature;BMP_pressure;BME280_temperature;BME280_humidity;BME280_pressure;Samples;Min_cycle;Max_cycle;Signal;HPM_P1;HPM_P2
2023/08/12 00:00:11;;;;;;;9.93;8.30;;;;;;;;;;5035088;28;20056;-69
2023/08/12 00:02:38;;;;;;;19.85;8.73;;;;;;;;;;5035144;28;20432;-68
2023/08/12 00:05:04;;;;;;;16.77;8.40;;;;;;;;;;5017674;28;20056;-69
2023/08/12 00:07:30;;;;;;;17.48;8.95;;;;;;;;;;5034593;28;20053;-68
2023/08/12 00:09:56;;;;;;;16.23;8.32;;;;;;;;;;5018056;28;20091;-69
2023/08/12 00:12:21;;;;;;;15.88;8.98;;;;;;;;;;5033932;28;20041;-69
2023/08/12 00:14:47;;;;;;;12.43;8.55;;;;;;;;;;5034729;28;20171;-69
2023/08/12 00:17:13;;;;;;;15.15;7.70;;;;;;;;;;5034391;28;20037;-69
2023/08/12 00:19:38;;;;;;;14.38;8.32;;;;;;;;;;5033508;28;20056;-69
2023/08/12 00:22:04;;;;;;;21.83;9.20;;;;;;;;;;5033935;28;20467;-68
2023/08/12 00:24:30;;;;;;;15.35;8.07;;;;;;;;;;5034429;28;20357;-69
2023/08/12 00:26:56;;;;;;;17.48;8.30;;;;;;;;;;5032872;28;20049;-69
2023/08/12 00:29:22;;;;;;;20.40;8.68;;;;;;;;;;5033080;28;20047;-69
2023/08/12 00:31:48;;;;;;;16.40;8.38;;;;;;;;;;5033987;28;20037;-69
2023/08/12 00:34:14;;;;;;;19.75;8.65;;;;;;;;;;5032908;28;20467;-69
2023/08/12 00:36:40;;;;;;;15.40;8.80;;;;;;;;;;5032986;28;20045;-69
2023/08/12 00:39:06;;;;;;;21.63;8.60;;;;;;;;;;5034005;28;20088;-69
2023/08/12 00:41:32;;;;;;;16.42;8.40;;;;;;;;;;5034029;28;20115;-68
2023/08/12 00:43:58;;;;;;;20.48;8.98;;;;;;;;;;5033213;28;20053;-69
2023/08/12 00:46:24;;;;;;;18.45;8.73;;;;;;;;;;5033875;28;20110;-69
2023/08/12 00:48:50;;;;;;;20.90;9.02;;;;;;;;;;5033816;28;20119;-69
2023/08/12 00:51:16;;;;;;;19.95;8.63;;;;;;;;;;5033695;28;20029;-67
2023/08/12 00:53:42;;;;;;;20.60;9.05;;;;;;;;;;5033738;28;20045;-69
2023/08/12 00:56:08;;;;;;;13.90;9.23;;;;;;;;;;5033495;28;20030;-69
2023/08/12 00:58:33;;;;;;;18.40;8.55;;;;;;;;;;5032610;28;20056;-68
2023/08/12 01:00:59;;;;;;;19.08;8.55;;;;;;;;;;5032694;28;20037;-69
2023/08/12 01:03:26;;;;;;;16.77;9.02;;;;;;;;;;5033107;28;20052;-69
2023/08/12 01:05:51;;;;;;;12.07;8.20;;;;;;;;;;5032152;28;20029;-69
2023/08/12 01:08:18;;;;;;;18.35;8.85;;;;;;;;;;5033089;28;20053;-68
2023/08/12 01:10:52;;;;;;;17.77;8.68;;;;;;;;;;5033094;28;20037;-68
2023/08/12 01:13:34;;;;;;;11.38;8.75;;;;;;;;;;5032651;28;20037;-68
2023/08/12 01:16:03;;;;;;;11.65;8.52;;;;;;;;;;5033476;28;20042;-68
2023/08/12 01:18:29;;;;;;;17.80;8.82;;;;;;;;;;5033044;28;20423;-68
2023/08/12 01:20:55;;;;;;;14.45;9.15;;;;;;;;;;5031878;28;20084;-68
2023/08/12 01:23:21;;;;;;;20.02;8.95;;;;;;;;;;5031923;28;20110;-68
2023/08/12 01:25:47;;;;;;;20.83;9.02;;;;;;;;;;5032805;28;20029;-69
2023/08/12 01:28:14;;;;;;;16.42;8.63;;;;;;;;;;5033145;28;20045;-68
2023/08/12 01:30:46;;;;;;;14.45;8.65;;;;;;;;;;5033166;28;20132;-68
2023/08/12 01:33:14;;;;;;;13.13;8.52;;;;;;;;;;5032216;28;20037;-68
2023/08/12 01:35:43;;;;;;;22.45;9.43;;;;;;;;;;5032813;28;20129;-69
2023/08/12 01:38:09;;;;;;;22.60;9.50;;;;;;;;;;5031827;28;20029;-68
2023/08/12 01:40:35;;;;;;;21.20;8.82;;;;;;;;;;5031789;28;20040;-68
2023/08/12 01:43:03;;;;;;;16.90;9.23;;;;;;;;;;5032100;28;20154;-69
2023/08/12 01:45:32;;;;;;;18.02;9.30;;;;;;;;;;5031507;28;20057;-69
2023/08/12 01:47:57;;;;;;;24.35;9.40;;;;;;;;;;5031625;28;20120;-69
2023/08/12 01:50:23;;;;;;;22.05;9.32;;;;;;;;;;5032592;28;20067;-68
2023/08/12 01:52:49;;;;;;;16.65;8.35;;;;;;;;;;5031503;28;20044;-69
2023/08/12 01:55:15;;;;;;;13.82;8.40;;;;;;;;;;5032403;28;20034;-69
2023/08/12 01:57:40;;;;;;;15.27;9.07;;;;;;;;;;5031596;28;20064;-69
2023/08/12 02:00:06;;;;;;;18.55;9.68;;;;;;;;;;5031473;28;20033;-68
2023/08/12 02:02:46;;;;;;;17.90;10.40;;;;;;;;;;5032258;28;20038;-68
2023/08/12 02:05:12;;;;;;;16.92;9.40;;;;;;;;;;5015596;28;20044;-69
2023/08/12 02:07:38;;;;;;;18.55;8.90;;;;;;;;;;5032941;28;20080;-68
2023/08/12 02:10:05;;;;;;;14.10;8.60;;;;;;;;;;5032780;28;20033;-69
2023/08/12 02:12:33;;;;;;;17.92;9.13;;;;;;;;;;5031636;28;20041;-69
2023/08/12 02:14:58;;;;;;;17.58;9.38;;;;;;;;;;5032428;28;20352;-69
2023/08/12 02:17:24;;;;;;;16.17;8.40;;;;;;;;;;5031471;28;20095;-69
2023/08/12 02:19:51;;;;;;;17.00;9.07;;;;;;;;;;5031201;28;20029;-69
2023/08/12 02:22:17;;;;;;;15.38;8.30;;;;;;;;;;5031134;28;20047;-69
2023/08/12 02:24:42;;;;;;;17.60;8.55;;;;;;;;;;5032127;28;20123;-69
2023/08/12 02:27:09;;;;;;;15.48;8.77;;;;;;;;;;5031023;28;20051;-69
2023/08/12 02:29:34;;;;;;;14.50;8.20;;;;;;;;;;5032300;28;20038;-69
2023/08/12 02:32:00;;;;;;;24.65;8.75;;;;;;;;;;5014680;28;20071;-69
2023/08/12 02:34:26;;;;;;;15.48;8.52;;;;;;;;;;5014784;28;20044;-69
2023/08/12 02:36:52;;;;;;;18.15;9.93;;;;;;;;;;5031216;28;20037;-69
2023/08/12 02:39:19;;;;;;;10.52;7.95;;;;;;;;;;5031926;28;20044;-69
2023/08/12 02:41:44;;;;;;;20.50;8.65;;;;;;;;;;5014631;28;20476;-69
2023/08/12 02:44:10;;;;;;;13.50;8.50;;;;;;;;;;5031638;28;20037;-68
2023/08/12 02:46:36;;;;;;;19.42;8.80;;;;;;;;;;5035181;28;20530;-69
2023/08/12 02:49:01;;;;;;;21.88;8.23;;;;;;;;;;5034995;28;20442;-69
2023/08/12 02:51:27;;;;;;;17.35;8.07;;;;;;;;;;5036248;28;20022;-69
2023/08/12 02:53:52;;;;;;;16.25;8.55;;;;;;;;;;5037246;28;20115;-69
2023/08/12 02:56:18;;;;;;;17.70;7.88;;;;;;;;;;5036137;28;20041;-69
2023/08/12 02:58:44;;;;;;;12.93;7.97;;;;;;;;;;5034924;28;20180;-69
2023/08/12 03:01:09;;;;;;;18.05;7.55;;;;;;;;;;5035714;28;20476;-68
2023/08/12 03:03:35;;;;;;;18.70;7.80;;;;;;;;;;5035940;28;20496;-69
2023/08/12 03:06:00;;;;;;;18.15;8.20;;;;;;;;;;5034876;28;20209;-69
2023/08/12 03:08:27;;;;;;;18.35;8.65;;;;;;;;;;5034908;28;20488;-69
2023/08/12 03:11:00;;;;;;;13.10;7.95;;;;;;;;;;5035912;28;20132;-69
2023/08/12 03:13:27;;;;;;;18.48;8.50;;;;;;;;;;5035073;28;20045;-69
2023/08/12 03:15:53;;;;;;;16.27;8.55;;;;;;;;;;5035419;28;20376;-69
2023/08/12 03:18:19;;;;;;;23.85;10.02;;;;;;;;;;5018538;28;20037;-69
2023/08/12 03:20:44;;;;;;;24.55;10.10;;;;;;;;;;5034318;28;20040;-68
2023/08/12 03:23:10;;;;;;;15.45;10.00;;;;;;;;;;5035539;28;20033;-68
2023/08/12 03:25:37;;;;;;;21.88;9.60;;;;;;;;;;5035633;28;20044;-69
2023/08/12 03:28:03;;;;;;;17.52;8.68;;;;;;;;;;5034182;28;20036;-69
2023/08/12 03:30:29;;;;;;;17.70;9.10;;;;;;;;;;5035940;28;20452;-69
2023/08/12 03:32:56;;;;;;;14.38;8.73;;;;;;;;;;5034474;28;20080;-68
2023/08/12 03:35:22;;;;;;;16.55;9.15;;;;;;;;;;5035570;28;20495;-69
2023/08/12 03:37:48;;;;;;;14.27;8.70;;;;;;;;;;5034118;28;20037;-69
2023/08/12 03:40:14;;;;;;;23.65;9.20;;;;;;;;;;5034783;28;20060;-69
2023/08/12 03:42:41;;;;;;;19.38;8.63;;;;;;;;;;5034001;28;20129;-69
2023/08/12 03:45:07;;;;;;;16.02;8.20;;;;;;;;;;5034303;28;20123;-69
2023/08/12 03:47:34;;;;;;;14.00;7.95;;;;;;;;;;5033838;28;20041;-69
2023/08/12 03:50:00;;;;;;;25.42;9.02;;;;;;;;;;5033771;28;20095;-69
2023/08/12 03:52:26;;;;;;;15.57;8.55;;;;;;;;;;5033729;28;20041;-69
2023/08/12 03:54:53;;;;;;;19.48;7.65;;;;;;;;;;5034627;28;20037;-69
2023/08/12 03:57:20;;;;;;;16.92;8.23;;;;;;;;;;5033372;28;20034;-69
2023/08/12 03:59:47;;;;;;;23.25;8.50;;;;;;;;;;5034183;28;20029;-68
2023/08/12 04:02:12;;;;;;;14.70;8.15;;;;;;;;;;5034944;28;20051;-68
2023/08/12 04:04:38;;;;;;;14.02;8.27;;;;;;;;;;5033820;28;20474;-69
2023/08/12 04:07:03;;;;;;;25.00;8.43;;;;;;;;;;5016951;28;20065;-69
2023/08/12 04:09:29;;;;;;;13.43;7.95;;;;;;;;;;5016852;28;20029;-69
2023/08/12 04:11:56;;;;;;;20.05;7.70;;;;;;;;;;5034491;28;20417;-69
2023/08/12 04:14:21;;;;;;;21.45;8.43;;;;;;;;;;5033385;28;20464;-69
2023/08/12 04:16:47;;;;;;;22.95;9.30;;;;;;;;;;5033456;28;20033;-69
2023/08/12 04:19:12;;;;;;;21.95;9.02;;;;;;;;;;5035226;28;20380;-69
2023/08/12 04:21:38;;;;;;;24.20;9.20;;;;;;;;;;5035132;28;20052;-69
2023/08/12 04:24:04;;;;;;;27.65;9.75;;;;;;;;;;5034255;28;20029;-69
2023/08/12 04:26:31;;;;;;;24.90;10.02;;;;;;;;;;5033874;28;20383;-69
2023/08/12 04:28:56;;;;;;;19.80;8.68;;;;;;;;;;5034010;28;20132;-69
2023/08/12 04:31:23;;;;;;;14.27;7.85;;;;;;;;;;5017420;28;20033;-69
2023/08/12 04:33:52;;;;;;;15.02;7.97;;;;;;;;;;5033600;28;20041;-70
2023/08/12 04:36:19;;;;;;;14.32;7.55;;;;;;;;;;5033401;28;20064;-68
2023/08/12 04:38:45;;;;;;;16.25;7.60;;;;;;;;;;5033864;28;20034;-69
2023/08/12 04:41:11;;;;;;;14.55;7.50;;;;;;;;;;5033523;28;20044;-69
2023/08/12 04:43:37;;;;;;;14.05;7.00;;;;;;;;;;5032743;28;20037;-69
2023/08/12 04:46:03;;;;;;;13.95;6.78;;;;;;;;;;5016944;28;20116;-69
2023/08/12 04:48:31;;;;;;;18.83;6.82;;;;;;;;;;5032543;28;20136;-69
2023/08/12 04:51:01;;;;;;;18.58;6.90;;;;;;;;;;5032500;28;20029;-69
2023/08/12 04:53:27;;;;;;;11.60;6.68;;;;;;;;;;5032800;28;20128;-69
2023/08/12 04:55:54;;;;;;;12.95;6.28;;;;;;;;;;5032471;28;20128;-69
2023/08/12 04:58:19;;;;;;;15.77;7.18;;;;;;;;;;5032548;28;20076;-69
2023/08/12 05:00:46;;;;;;;11.10;7.20;;;;;;;;;;5032665;28;20040;-68
2023/08/12 05:03:11;;;;;;;17.75;7.20;;;;;;;;;;5032741;28;20033;-69
2023/08/12 05:05:37;;;;;;;13.40;7.30;;;;;;;;;;5032912;28;20368;-69
2023/08/12 05:08:04;;;;;;;22.60;7.47;;;;;;;;;;5033616;28;20061;-69
2023/08/12 05:10:31;;;;;;;12.85;7.75;;;;;;;;;;5032935;28;20460;-68
2023/08/12 05:12:58;;;;;;;21.45;7.38;;;;;;;;;;5032567;28;20041;-69
2023/08/12 05:15:25;;;;;;;15.50;7.53;;;;;;;;;;5032813;28;20041;-68
2023/08/12 05:17:50;;;;;;;16.83;8.57;;;;;;;;;;5033256;28;20041;-69
2023/08/12 05:20:19;;;;;;;15.93;8.40;;;;;;;;;;5032040;28;20044;-68
2023/08/12 05:22:46;;;;;;;20.10;8.63;;;;;;;;;;5032253;28;20099;-69
2023/08/12 05:25:12;;;;;;;16.52;8.63;;;;;;;;;;5031903;28;20025;-68
2023/08/12 05:27:38;;;;;;;17.13;8.45;;;;;;;;;;5032539;28;20045;-69
2023/08/12 05:30:04;;;;;;;17.50;8.35;;;;;;;;;;5031883;28;20034;-69
2023/08/12 05:32:30;;;;;;;16.75;8.68;;;;;;;;;;5032975;28;20045;-69
2023/08/12 05:34:56;;;;;;;17.48;8.68;;;;;;;;;;5032061;28;20051;-70
2023/08/12 05:37:22;;;;;;;16.33;9.15;;;;;;;;;;5032579;28;20131;-69
2023/08/12 05:39:48;;;;;;;18.17;8.30;;;;;;;;;;5032834;28;20116;-69
2023/08/12 05:42:13;;;;;;;16.73;8.00;;;;;;;;;;5015808;28;20128;-70
2023/08/12 05:44:40;;;;;;;18.70;8.30;;;;;;;;;;5033100;28;20049;-69
2023/08/12 05:47:06;;;;;;;14.77;8.10;;;;;;;;;;5015209;28;20037;-69
2023/08/12 05:49:31;;;;;;;20.02;8.43;;;;;;;;;;5033657;28;20110;-69
2023/08/12 05:51:57;;;;;;;16.10;8.13;;;;;;;;;;5033462;28;20048;-69
2023/08/12 05:54:23;;;;;;;15.60;8.18;;;;;;;;;;5015526;28;20044;-68
2023/08/12 05:56:49;;;;;;;14.60;8.05;;;;;;;;;;5032567;28;20033;-69
2023/08/12 05:59:15;;;;;;;25.33;8.60;;;;;;;;;;5032395;28;20376;-69
2023/08/12 06:01:41;;;;;;;19.38;8.70;;;;;;;;;;5048070;28;20041;-69
2023/08/12 06:04:06;;;;;;;18.40;9.10;;;;;;;;;;5032339;28;20033;-69
2023/08/12 06:06:32;;;;;;;13.85;8.38;;;;;;;;;;5031368;28;20053;-69
2023/08/12 06:08:58;;;;;;;17.98;8.85;;;;;;;;;;5031508;28;20048;-69
2023/08/12 06:11:23;;;;;;;18.95;8.45;;;;;;;;;;5032266;28;20095;-69
2023/08/12 06:13:49;;;;;;;13.63;8.38;;;;;;;;;;5015338;28;20033;-69
2023/08/12 06:16:15;;;;;;;16.35;8.18;;;;;;;;;;5031687;28;20045;-69
2023/08/12 06:18:40;;;;;;;18.35;8.18;;;;;;;;;;5032351;28;20091;-69
2023/08/12 06:21:06;;;;;;;23.02;8.70;;;;;;;;;;5032300;28;20037;-69
2023/08/12 06:23:32;;;;;;;27.52;8.95;;;;;;;;;;5032796;28;20069;-69
2023/08/12 06:25:58;;;;;;;19.98;8.40;;;;;;;;;;5032742;28;20045;-69
2023/08/12 06:28:23;;;;;;;24.48;8.60;;;;;;;;;;5031039;28;20056;-68
2023/08/12 06:30:49;;;;;;;21.30;7.75;;;;;;;;;;5032072;28;20102;-69
2023/08/12 06:33:15;;;;;;;18.27;7.93;;;;;;;;;;5032045;28;20120;-69
2023/08/12 06:35:41;;;;;;;20.75;8.05;;;;;;;;;;5031868;28;20571;-69
2023/08/12 06:38:08;;;;;;;16.83;7.88;;;;;;;;;;5031930;28;20037;-69
2023/08/12 06:40:33;;;;;;;18.23;7.80;;;;;;;;;;5031858;28;20037;-69
2023/08/12 06:42:59;;;;;;;19.60;7.60;;;;;;;;;;5031855;28;20361;-69
2023/08/12 06:45:25;;;;;;;18.08;6.97;;;;;;;;;;5030058;28;20041;-68
2023/08/12 06:47:50;;;;;;;17.35;7.35;;;;;;;;;;5031154;28;20365;-69
2023/08/12 06:50:16;;;;;;;15.40;6.93;;;;;;;;;;5031786;28;20607;-69
2023/08/12 06:52:42;;;;;;;15.30;6.45;;;;;;;;;;5031734;28;20048;-69
2023/08/12 06:55:08;;;;;;;13.15;6.50;;;;;;;;;;5032244;28;20037;-70
2023/08/12 06:57:33;;;;;;;15.90;6.60;;;;;;;;;;5032182;28;20052;-69
2023/08/12 06:59:59;;;;;;;15.60;7.68;;;;;;;;;;5032745;28;20383;-69
2023/08/12 07:02:24;;;;;;;17.08;6.93;;;;;;;;;;5032730;28;20105;-69
2023/08/12 07:04:50;;;;;;;23.58;7.32;;;;;;;;;;5032640;28;20091;-69
2023/08/12 07:07:15;;;;;;;13.43;7.45;;;;;;;;;;5031965;28;20144;-70
2023/08/12 07:09:41;;;;;;;29.88;6.70;;;;;;;;;;5030957;28;20034;-69
2023/08/12 07:12:07;;;;;;;15.35;6.70;;;;;;;;;;5030887;28;20041;-69
2023/08/12 07:14:33;;;;;;;16.38;6.80;;;;;;;;;;5031745;28;20033;-69
2023/08/12 07:16:58;;;;;;;17.27;6.63;;;;;;;;;;5031578;28;20037;-69
2023/08/12 07:19:24;;;;;;;18.83;7.57;;;;;;;;;;5031636;28;20038;-68
2023/08/12 07:21:50;;;;;;;17.50;6.88;;;;;;;;;;5031998;28;20353;-69
2023/08/12 07:24:16;;;;;;;12.63;6.75;;;;;;;;;;5031355;28;20132;-69
2023/08/12 07:26:41;;;;;;;12.70;6.28;;;;;;;;;;5030808;28;20164;-70
2023/08/12 07:29:07;;;;;;;15.50;7.57;;;;;;;;;;5014370;28;20185;-69
2023/08/12 07:31:33;;;;;;;21.70;6.97;;;;;;;;;;5032458;28;20048;-69
2023/08/12 07:33:58;;;;;;;20.90;7.28;;;;;;;;;;5034206;28;20384;-68
2023/08/12 07:36:24;;;;;;;21.42;7.47;;;;;;;;;;5035230;28;20132;-69
2023/08/12 07:38:49;;;;;;;25.27;8.32;;;;;;;;;;5035042;28;20046;-69
2023/08/12 07:41:15;;;;;;;17.83;7.28;;;;;;;;;;5033988;28;20045;-69
2023/08/12 07:43:40;;;;;;;24.75;7.38;;;;;;;;;;5033975;28;20539;-69
2023/08/12 07:46:06;;;;;;;19.38;7.35;;;;;;;;;;5034583;28;20357;-68
2023/08/12 07:48:32;;;;;;;14.60;6.85;;;;;;;;;;5034501;28;20048;-69
2023/08/12 07:50:57;;;;;;;17.30;6.80;;;;;;;;;;5052768;28;20045;-69
2023/08/12 07:53:24;;;;;;;17.17;6.68;;;;;;;;;;5053234;28;20087;-69
2023/08/12 07:55:49;;;;;;;12.93;7.40;;;;;;;;;;5052859;28;20060;-69
2023/08/12 07:58:15;;;;;;;19.70;7.20;;;;;;;;;;5020854;28;20029;-69
2023/08/12 08:00:41;;;;;;;17.40;7.93;;;;;;;;;;5037360;28;20059;-69
2023/08/12 08:03:06;;;;;;;17.15;7.65;;;;;;;;;;5036822;28;20036;-69
2023/08/12 08:05:32;;;;;;;19.83;7.82;;;;;;;;;;5053186;28;20044;-68
2023/08/12 08:07:58;;;;;;;22.48;7.72;;;;;;;;;;5053679;28;20068;-69
2023/08/12 08:10:24;;;;;;;18.15;7.93;;;;;;;;;;5054322;28;20110;-70
2023/08/12 08:12:49;;;;;;;19.30;7.32;;;;;;;;;;5053361;28;20135;-69
2023/08/12 08:15:15;;;;;;;25.88;8.82;;;;;;;;;;5035823;28;20033;-69
2023/08/12 08:17:41;;;;;;;20.48;8.57;;;;;;;;;;5052967;28;20044;-68
2023/08/12 08:20:07;;;;;;;12.88;7.60;;;;;;;;;;5053635;28;20044;-70
2023/08/12 08:22:33;;;;;;;21.80;8.35;;;;;;;;;;5033924;28;20049;-70
2023/08/12 08:24:59;;;;;;;15.20;8.73;;;;;;;;;;5034715;28;20080;-69
2023/08/12 08:27:25;;;;;;;19.23;8.45;;;;;;;;;;5016744;28;20479;-69
2023/08/12 08:29:51;;;;;;;19.52;9.15;;;;;;;;;;5034059;28;20056;-69
2023/08/12 08:32:16;;;;;;;22.92;8.88;;;;;;;;;;5033946;28;20124;-69
2023/08/12 08:34:42;;;;;;;20.10;8.57;;;;;;;;;;5033779;28;20039;-69
2023/08/12 08:37:08;;;;;;;17.05;8.82;;;;;;;;;;5033479;28;20052;-69
2023/08/12 08:39:34;;;;;;;11.57;7.70;;;;;;;;;;5033747;28;20034;-69
2023/08/12 08:42:00;;;;;;;16.10;8.60;;;;;;;;;;5033991;28;20041;-69
2023/08/12 08:44:28;;;;;;;13.77;8.55;;;;;;;;;;5033923;28;20037;-69
2023/08/12 08:46:54;;;;;;;20.88;10.95;;;;;;;;;;5033868;28;20049;-70
2023/08/12 08:49:20;;;;;;;18.70;8.13;;;;;;;;;;5033462;28;20103;-70
2023/08/12 08:51:46;;;;;;;13.90;7.10;;;;;;;;;;5033523;28;20048;-69
2023/08/12 08:54:13;;;;;;;16.25;7.85;;;;;;;;;;5016088;28;20033;-70
2023/08/12 08:56:38;;;;;;;12.95;7.05;;;;;;;;;;5035031;28;20395;-69
2023/08/12 08:59:04;;;;;;;16.50;7.07;;;;;;;;;;5036637;28;20042;-70
2023/08/12 09:01:30;;;;;;;13.23;7.80;;;;;;;;;;5036471;28;20060;-69
2023/08/12 09:03:57;;;;;;;13.82;6.93;;;;;;;;;;5033109;28;20612;-69
2023/08/12 09:06:24;;;;;;;15.57;7.70;;;;;;;;;;5033656;28;20037;-69
2023/08/12 09:08:51;;;;;;;14.57;8.05;;;;;;;;;;5032663;28;20956;-70
2023/08/12 09:11:17;;;;;;;14.30;7.72;;;;;;;;;;5033274;28;20052;-69
2023/08/12 09:13:43;;;;;;;23.70;8.38;;;;;;;;;;5032264;28;20037;-69
2023/08/12 09:16:09;;;;;;;19.70;8.07;;;;;;;;;;5032088;28;20105;-70
2023/08/12 09:18:34;;;;;;;20.67;7.40;;;;;;;;;;5032925;28;20376;-69
2023/08/12 09:21:01;;;;;;;14.32;7.40;;;;;;;;;;5032402;28;20037;-69
2023/08/12 09:23:27;;;;;;;14.27;7.57;;;;;;;;;;5032381;28;20124;-70
2023/08/12 09:25:53;;;;;;;14.50;7.90;;;;;;;;;;5032870;28;20447;-70
2023/08/12 09:28:18;;;;;;;17.05;7.45;;;;;;;;;;5032767;28;20076;-69
2023/08/12 09:30:50;;;;;;;14.90;7.05;;;;;;;;;;5016011;28;20053;-69
2023/08/12 09:33:15;;;;;;;18.20;8.35;;;;;;;;;;5016040;28;20388;-70
2023/08/12 09:35:41;;;;;;;20.63;8.00;;;;;;;;;;5031726;28;20048;-70
2023/08/12 09:38:08;;;;;;;26.08;7.68;;;;;;;;;;4999099;28;20029;-69
2023/08/12 09:40:34;;;;;;;15.07;7.95;;;;;;;;;;5015317;28;20033;-68
2023/08/12 09:43:00;;;;;;;17.25;8.07;;;;;;;;;;5033100;28;20037;-70
2023/08/12 09:45:26;;;;;;;27.15;8.60;;;;;;;;;;5032833;28;20041;-70
2023/08/12 09:47:54;;;;;;;16.55;8.45;;;;;;;;;;5032480;28;20053;-70
2023/08/12 09:50:21;;;;;;;16.73;8.70;;;;;;;;;;5032906;28;20090;-69
2023/08/12 09:52:47;;;;;;;18.33;8.70;;;;;;;;;;5031675;28;20041;-69
2023/08/12 09:55:14;;;;;;;12.23;8.13;;;;;;;;;;5031031;28;20044;-70
2023/08/12 09:57:42;;;;;;;15.20;8.55;;;;;;;;;;5031698;28;20440;-70
2023/08/12 10:00:12;;;;;;;18.15;9.43;;;;;;;;;;5032424;28;20460;-69
2023/08/12 10:02:39;;;;;;;16.90;9.02;;;;;;;;;;5032478;28;20356;-69
2023/08/12 10:05:06;;;;;;;21.60;9.45;;;;;;;;;;5034857;28;20095;-70
2023/08/12 10:07:32;;;;;;;20.15;9.63;;;;;;;;;;5016528;28;20092;-69
2023/08/12 10:09:58;;;;;;;18.25;9.45;;;;;;;;;;5032719;28;20037;-69
2023/08/12 10:12:24;;;;;;;14.77;9.25;;;;;;;;;;5032606;28;20033;-69
2023/08/12 10:14:50;;;;;;;21.30;9.10;;;;;;;;;;5031538;28;20037;-69
2023/08/12 10:17:17;;;;;;;19.45;10.23;;;;;;;;;;5031413;28;20037;-69
2023/08/12 10:19:46;;;;;;;21.17;10.10;;;;;;;;;;5014907;28;20083;-69
2023/08/12 10:22:12;;;;;;;14.68;9.77;;;;;;;;;;5015590;28;20033;-69
2023/08/12 10:24:39;;;;;;;18.05;9.90;;;;;;;;;;5032167;28;20040;-68
2023/08/12 10:27:05;;;;;;;18.00;9.95;;;;;;;;;;5032333;28;20140;-69
2023/08/12 10:29:31;;;;;;;15.75;9.30;;;;;;;;;;5031414;28;20123;-69
2023/08/12 10:31:56;;;;;;;15.52;9.00;;;;;;;;;;5032658;28;20037;-70
2023/08/12 10:34:23;;;;;;;16.73;8.80;;;;;;;;;;5032481;28;20388;-70
2023/08/12 10:37:01;;;;;;;18.20;10.48;;;;;;;;;;5014751;28;20065;-69
2023/08/12 10:39:30;;;;;;;17.77;9.30;;;;;;;;;;5014592;28;20026;-70
2023/08/12 10:41:56;;;;;;;16.02;8.80;;;;;;;;;;5030897;28;20037;-70
2023/08/12 10:44:25;;;;;;;13.57;9.13;;;;;;;;;;5031861;28;20033;-70
2023/08/12 10:46:51;;;;;;;13.25;9.10;;;;;;;;;;5032140;28;20048;-69
2023/08/12 10:49:18;;;;;;;12.18;8.60;;;;;;;;;;4997920;28;20041;-68
2023/08/12 10:51:48;;;;;;;14.13;9.23;;;;;;;;;;5031847;28;20099;-70
2023/08/12 10:54:15;;;;;;;16.42;10.00;;;;;;;;;;5014728;28;20490;-69
2023/08/12 10:57:00;;;;;;;20.08;9.88;;;;;;;;;;5030799;28;20034;-69
2023/08/12 10:59:55;;;;;;;19.38;10.80;;;;;;;;;;5031834;28;20045;-69
2023/08/12 11:02:33;;;;;;;15.63;10.43;;;;;;;;;;5029771;28;20503;-70
2023/08/12 11:05:09;;;;;;;20.33;11.00;;;;;;;;;;5013505;28;20203;-70
2023/08/12 11:07:54;;;;;;;18.65;10.57;;;;;;;;;;5016064;28;20052;-69
2023/08/12 11:10:21;;;;;;;23.42;11.25;;;;;;;;;;5033799;28;20038;-69
2023/08/12 11:12:49;;;;;;;20.63;11.77;;;;;;;;;;5034252;28;20041;-69
2023/08/12 11:15:14;;;;;;;17.00;11.32;;;;;;;;;;5034705;28;20037;-69
2023/08/12 11:17:41;;;;;;;30.05;12.40;;;;;;;;;;5039675;28;20025;-68
2023/08/12 11:20:09;;;;;;;22.60;12.50;;;;;;;;;;5054308;28;20033;-68
2023/08/12 11:22:37;;;;;;;17.75;11.65;;;;;;;;;;5054527;28;20063;-69
2023/08/12 11:25:05;;;;;;;19.45;10.88;;;;;;;;;;5054542;28;20036;-69
2023/08/12 11:27:44;;;;;;;21.58;11.43;;;;;;;;;;5055134;28;20033;-69
2023/08/12 11:30:20;;;;;;;17.92;10.65;;;;;;;;;;5054052;28;20079;-70
2023/08/12 11:32:46;;;;;;;16.75;10.90;;;;;;;;;;5055217;28;20041;-69
2023/08/12 11:35:13;;;;;;;24.02;11.45;;;;;;;;;;5054842;28;20085;-68
2023/08/12 11:37:40;;;;;;;20.00;11.32;;;;;;;;;;5053927;28;20033;-69
2023/08/12 11:40:08;;;;;;;14.45;12.02;;;;;;;;;;5055144;28;20037;-70
2023/08/12 11:42:35;;;;;;;15.68;10.60;;;;;;;;;;5055020;28;20103;-69
2023/08/12 11:45:02;;;;;;;16.83;11.52;;;;;;;;;;5054592;28;20032;-69
2023/08/12 11:47:31;;;;;;;14.65;10.57;;;;;;;;;;5037585;28;20047;-69
2023/08/12 11:49:57;;;;;;;17.30;10.73;;;;;;;;;;5054647;28;20083;-70
2023/08/12 11:52:23;;;;;;;15.20;10.65;;;;;;;;;;5054571;28;20056;-69
2023/08/12 11:54:50;;;;;;;14.02;10.10;;;;;;;;;;5054399;28;20044;-70
2023/08/12 11:57:17;;;;;;;18.88;10.93;;;;;;;;;;5054576;28;20182;-69
2023/08/12 11:59:43;;;;;;;14.93;9.88;;;;;;;;;;5054531;28;20090;-69
2023/08/12 12:02:10;;;;;;;19.02;10.85;;;;;;;;;;5053857;28;20131;-69
2023/08/12 12:04:35;;;;;;;14.68;10.10;;;;;;;;;;5053663;28;20033;-70
2023/08/12 12:07:05;;;;;;;14.15;10.68;;;;;;;;;;5054162;28;20061;-69
2023/08/12 12:09:32;;;;;;;19.13;11.82;;;;;;;;;;5036977;28;20048;-69
2023/08/12 12:12:00;;;;;;;17.88;11.60;;;;;;;;;;5055000;28;20029;-70
2023/08/12 12:14:26;;;;;;;20.38;12.00;;;;;;;;;;5054368;28;20041;-69
2023/08/12 12:16:51;;;;;;;25.33;12.93;;;;;;;;;;5053704;28;20379;-69
2023/08/12 12:19:17;;;;;;;22.20;13.60;;;;;;;;;;5052970;28;20048;-70
2023/08/12 12:21:46;;;;;;;18.88;12.55;;;;;;;;;;5053994;28;20041;-69
2023/08/12 12:24:11;;;;;;;23.17;12.93;;;;;;;;;;5053269;28;20033;-69
2023/08/12 12:26:37;;;;;;;19.40;12.82;;;;;;;;;;5054178;28;20135;-70
2023/08/12 12:29:05;;;;;;;20.75;12.57;;;;;;;;;;5036432;28;20048;-70
2023/08/12 12:31:32;;;;;;;18.13;12.60;;;;;;;;;;5053962;28;20052;-70
2023/08/12 12:33:58;;;;;;;20.35;12.90;;;;;;;;;;5053073;28;20044;-70
2023/08/12 12:36:24;;;;;;;19.35;10.40;;;;;;;;;;5054039;28;20033;-70
2023/08/12 12:38:50;;;;;;;14.52;10.25;;;;;;;;;;5054662;28;20041;-69
2023/08/12 12:41:15;;;;;;;15.80;10.07;;;;;;;;;;5054525;28;20036;-69
2023/08/12 12:43:41;;;;;;;15.55;10.05;;;;;;;;;;5053914;28;20047;-69
2023/08/12 12:46:08;;;;;;;13.57;9.88;;;;;;;;;;5053762;28;20040;-69
2023/08/12 12:48:34;;;;;;;15.73;8.73;;;;;;;;;;5036272;28;20441;-70
2023/08/12 12:50:59;;;;;;;13.80;8.45;;;;;;;;;;5036034;28;20127;-70
2023/08/12 12:53:25;;;;;;;13.30;8.20;;;;;;;;;;5052410;28;20041;-69
2023/08/12 12:55:51;;;;;;;12.55;8.20;;;;;;;;;;5035679;28;20100;-69
2023/08/12 12:58:17;;;;;;;19.25;8.27;;;;;;;;;;5035528;28;20033;-69
2023/08/12 13:00:42;;;;;;;9.68;8.18;;;;;;;;;;5052362;28;20047;-69
2023/08/12 13:03:08;;;;;;;10.77;9.10;;;;;;;;;;5053620;28;20040;-70
2023/08/12 13:05:34;;;;;;;12.32;8.52;;;;;;;;;;5019202;28;20033;-70
2023/08/12 13:08:00;;;;;;;13.07;8.73;;;;;;;;;;5051665;28;20053;-70
2023/08/12 13:10:26;;;;;;;11.93;8.50;;;;;;;;;;5054275;28;20024;-69
2023/08/12 13:12:52;;;;;;;14.55;8.88;;;;;;;;;;5054442;28;20506;-69
2023/08/12 13:15:17;;;;;;;13.68;9.15;;;;;;;;;;5004959;28;20068;-70
2023/08/12 13:17:43;;;;;;;12.00;8.57;;;;;;;;;;5038027;28;20032;-69
2023/08/12 13:20:09;;;;;;;12.25;8.88;;;;;;;;;;5070909;28;20090;-70
2023/08/12 13:22:35;;;;;;;14.68;8.88;;;;;;;;;;5054375;28;20055;-69
2023/08/12 13:25:01;;;;;;;10.52;8.77;;;;;;;;;;5070706;28;20036;-69
2023/08/12 13:27:28;;;;;;;11.35;8.85;;;;;;;;;;5037817;28;20126;-69
2023/08/12 13:29:54;;;;;;;10.40;8.25;;;;;;;;;;5053775;28;20559;-69
2023/08/12 13:32:20;;;;;;;13.40;8.68;;;;;;;;;;5054657;28;20101;-69
2023/08/12 13:34:47;;;;;;;12.70;8.77;;;;;;;;;;5055303;28;20462;-68
2023/08/12 13:37:13;;;;;;;10.10;8.45;;;;;;;;;;5039455;28;20138;-70
2023/08/12 13:39:39;;;;;;;12.68;8.80;;;;;;;;;;5070893;28;20442;-69
2023/08/12 13:42:04;;;;;;;13.07;9.02;;;;;;;;;;5056323;28;20495;-70
2023/08/12 13:44:30;;;;;;;12.10;8.57;;;;;;;;;;5052131;28;20040;-69
2023/08/12 13:46:55;;;;;;;10.15;8.50;;;;;;;;;;5051915;28;20191;-70
2023/08/12 13:49:21;;;;;;;13.38;8.55;;;;;;;;;;5053027;28;20041;-69
2023/08/12 13:51:47;;;;;;;12.63;9.27;;;;;;;;;;5051893;28;20041;-68
2023/08/12 13:54:13;;;;;;;12.43;9.52;;;;;;;;;;5053174;28;20169;-69
2023/08/12 13:56:38;;;;;;;14.68;9.80;;;;;;;;;;5051858;28;20044;-69
2023/08/12 13:59:04;;;;;;;14.10;9.95;;;;;;;;;;5053231;28;20328;-69
2023/08/12 14:01:30;;;;;;;15.80;9.38;;;;;;;;;;5051300;28;20375;-69
2023/08/12 14:03:56;;;;;;;14.80;9.52;;;;;;;;;;5034776;28;20107;-68
2023/08/12 14:06:21;;;;;;;17.83;10.23;;;;;;;;;;5052222;28;20043;-69
2023/08/12 14:08:47;;;;;;;14.95;9.55;;;;;;;;;;5050774;28;20072;-68
2023/08/12 14:11:13;;;;;;;17.92;9.75;;;;;;;;;;5051563;28;20324;-70
2023/08/12 14:13:38;;;;;;;16.35;10.48;;;;;;;;;;5052102;28;20426;-69
2023/08/12 14:16:04;;;;;;;18.00;10.13;;;;;;;;;;5051800;28;20045;-70
2023/08/12 14:18:30;;;;;;;17.08;10.52;;;;;;;;;;5037604;28;20127;-69
2023/08/12 14:20:56;;;;;;;15.45;9.88;;;;;;;;;;5055141;28;20081;-69
2023/08/12 14:23:22;;;;;;;16.20;10.23;;;;;;;;;;5054266;28;20464;-70